Site contains unofficial IBTrACS data. Visit the IBTrACS Website to access archived data.

1860 NOT_NAMED (1860081S14429)


IBTrACS version v04r00. Visit IBTrACS website for data access.
Please direct all questions to the IBTrACS Q and A forum

Storm track - Intensity - Wind Radii - Intensity Data - Source Data - All data

Summary Information

Storm ID 1860081S14429
Start Mar 20 18Z
End Mar 29 06Z
ATCF IDs
Track status Best track data.

Storm track plot

Map of storm track

Intensity plots

No Intensity information for this storm


Radial wind information

No radial wind information for this storm


Position and Intensity Table

BASIN ISO_TIME_________ NATURE LAT LON
degrees north degrees east
SI 1860-03-20 18:00:00 NR -13.70 68.70
SI 21:00:00 NR -13.85 68.45
SI 1860-03-21 00:00:00 NR -14.01 68.22
SI 03:00:00 NR -14.16 67.99
SI 06:00:00 NR -14.30 67.80
SI 09:00:00 NR -14.44 67.64
SI 12:00:00 NR -14.56 67.49
SI 15:00:00 NR -14.69 67.35
SI 18:00:00 NR -14.80 67.20
SI 21:00:00 NR -14.89 67.02
SI 1860-03-22 00:00:00 NR -14.98 66.82
SI 03:00:00 NR -15.08 66.62
SI 06:00:00 NR -15.20 66.40
SI 09:00:00 NR -15.38 66.18
SI 12:00:00 NR -15.58 65.96
SI 15:00:00 NR -15.79 65.73
SI 18:00:00 NR -16.00 65.50
SI 21:00:00 NR -16.19 65.26
SI 1860-03-23 00:00:00 NR -16.38 65.03
SI 03:00:00 NR -16.55 64.80
SI 06:00:00 NR -16.70 64.60
SI 09:00:00 NR -16.82 64.43
SI 12:00:00 NR -16.91 64.28
SI 15:00:00 NR -17.00 64.14
SI 18:00:00 NR -17.10 64.00
SI 21:00:00 NR -17.21 63.86
SI 1860-03-24 00:00:00 NR -17.33 63.71
SI 03:00:00 NR -17.46 63.56
SI 06:00:00 NR -17.60 63.40
SI 09:00:00 NR -17.76 63.23
SI 12:00:00 NR -17.93 63.04
SI 15:00:00 NR -18.11 62.83
SI 18:00:00 NR -18.30 62.60
SI 21:00:00 NR -18.50 62.33
SI 1860-03-25 00:00:00 NR -18.71 62.04
SI 03:00:00 NR -18.91 61.76
SI 06:00:00 NR -19.10 61.50
SI 09:00:00 NR -19.26 61.29
SI 12:00:00 NR -19.41 61.11
SI 15:00:00 NR -19.56 60.95
SI 18:00:00 NR -19.70 60.80
SI 21:00:00 NR -19.85 60.64
SI 1860-03-26 00:00:00 NR -19.99 60.49
SI 03:00:00 NR -20.14 60.35
SI 06:00:00 NR -20.30 60.20
SI 09:00:00 NR -20.47 60.05
SI 12:00:00 NR -20.64 59.89
SI 15:00:00 NR -20.82 59.74
SI 18:00:00 NR -21.00 59.60
SI 21:00:00 NR -21.14 59.48
SI 1860-03-27 00:00:00 NR -21.28 59.36
SI 03:00:00 NR -21.46 59.23
SI 06:00:00 NR -21.70 59.10
SI 09:00:00 NR -22.03 58.94
SI 12:00:00 NR -22.42 58.76
SI 15:00:00 NR -22.85 58.58
SI 18:00:00 NR -23.30 58.40
SI 21:00:00 NR -23.74 58.23
SI 1860-03-28 00:00:00 NR -24.19 58.08
SI 03:00:00 NR -24.65 57.93
SI 06:00:00 NR -25.10 57.80
SI 09:00:00 NR -25.53 57.69
SI 12:00:00 NR -25.95 57.58
SI 15:00:00 NR -26.37 57.49
SI 18:00:00 NR -26.80 57.40
SI 21:00:00 NR -27.24 57.30
SI 1860-03-29 00:00:00 NR -27.69 57.21
SI 03:00:00 NR -28.14 57.10
SI 06:00:00 NR -28.60 57.00

Source Information

Agency Information
USA
TOKYO
CMA
HKO
NEWDELHI
REUNION
BOM
NADI
WELLINGTON
DS824
TD9636 cons_worldwide_trop_cyclone_18710101-19891231-005:Line=393
TD9635
NEUMANN
MLC

All available IBTrACS Data

SEASON BASIN SUBBASIN ISO_TIME_________ NATURE LAT LON DIST2LAND LANDFALL IFLAG USA SSHS TD9636 LAT TD9636 LON TD9636 STAGE STORM SPEED STORM DIR
Year degrees north degrees east km km 1 degrees north degrees east kts degrees
1860 SI MM 1860-03-20 18:00:00 NR -13.70 68.70 1371 1347 __________O___ -1 -13.70 68.70 7 6 237
1860 SI MM 21:00:00 NR -13.85 68.45 1341 1307 __________P___ -1 -13.85 68.45 7 6 237
1860 SI MM 1860-03-21 00:00:00 NR -14.01 68.22 1307 1283 __________P___ -1 -14.01 68.22 7 5 236
1860 SI MM 03:00:00 NR -14.16 67.99 1277 1253 __________P___ -1 -14.16 67.99 7 5 234
1860 SI MM 06:00:00 NR -14.30 67.80 1253 1229 __________O___ -1 -14.30 67.80 7 4 231
1860 SI MM 09:00:00 NR -14.44 67.64 1229 1208 __________P___ -1 -14.44 67.64 7 4 228
1860 SI MM 12:00:00 NR -14.56 67.49 1208 1193 __________P___ -1 -14.56 67.49 7 4 228
1860 SI MM 15:00:00 NR -14.69 67.35 1193 1168 __________P___ -1 -14.69 67.35 7 4 230
1860 SI MM 18:00:00 NR -14.80 67.20 1168 1144 __________O___ -1 -14.80 67.20 7 4 238
1860 SI MM 21:00:00 NR -14.89 67.02 1144 1120 __________P___ -1 -14.89 67.02 7 4 244
1860 SI MM 1860-03-22 00:00:00 NR -14.98 66.82 1120 1096 __________P___ -1 -14.98 66.82 7 4 245
1860 SI MM 03:00:00 NR -15.08 66.62 1096 1072 __________P___ -1 -15.08 66.62 7 5 241
1860 SI MM 06:00:00 NR -15.20 66.40 1072 1042 __________O___ -1 -15.20 66.40 7 5 234
1860 SI MM 09:00:00 NR -15.38 66.18 1042 1012 __________P___ -1 -15.38 66.18 7 6 228
1860 SI MM 12:00:00 NR -15.58 65.96 1012 973 __________P___ -1 -15.58 65.96 7 6 226
1860 SI MM 15:00:00 NR -15.79 65.73 973 943 __________P___ -1 -15.79 65.73 7 6 226
1860 SI MM 18:00:00 NR -16.00 65.50 943 913 __________O___ -1 -16.00 65.50 7 6 228
1860 SI MM 21:00:00 NR -16.19 65.26 913 874 __________P___ -1 -16.19 65.26 7 6 230
1860 SI MM 1860-03-23 00:00:00 NR -16.38 65.03 874 850 __________P___ -1 -16.38 65.03 7 6 231
1860 SI MM 03:00:00 NR -16.55 64.80 845 821 __________P___ -1 -16.55 64.80 7 5 232
1860 SI MM 06:00:00 NR -16.70 64.60 821 797 __________O___ -1 -16.70 64.60 7 4 233
1860 SI MM 09:00:00 NR -16.82 64.43 797 782 __________P___ -1 -16.82 64.43 7 4 235
1860 SI MM 12:00:00 NR -16.91 64.28 782 758 __________P___ -1 -16.91 64.28 7 3 236
1860 SI MM 15:00:00 NR -17.00 64.14 758 743 __________P___ -1 -17.00 64.14 7 3 235
1860 SI MM 18:00:00 NR -17.10 64.00 743 729 __________O___ -1 -17.10 64.00 7 3 233
1860 SI MM 21:00:00 NR -17.21 63.86 729 705 __________P___ -1 -17.21 63.86 7 4 230
1860 SI MM 1860-03-24 00:00:00 NR -17.33 63.71 705 690 __________P___ -1 -17.33 63.71 7 4 229
1860 SI MM 03:00:00 NR -17.46 63.56 685 661 __________P___ -1 -17.46 63.56 7 4 228
1860 SI MM 06:00:00 NR -17.60 63.40 661 637 __________O___ -1 -17.60 63.40 7 4 227
1860 SI MM 09:00:00 NR -17.76 63.23 632 608 __________P___ -1 -17.76 63.23 7 5 226
1860 SI MM 12:00:00 NR -17.93 63.04 608 579 __________P___ -1 -17.93 63.04 7 5 227
1860 SI MM 15:00:00 NR -18.11 62.83 579 551 __________P___ -1 -18.11 62.83 7 6 228
1860 SI MM 18:00:00 NR -18.30 62.60 551 513 __________O___ -1 -18.30 62.60 7 6 230
1860 SI MM 21:00:00 NR -18.50 62.33 513 484 __________P___ -1 -18.50 62.33 7 7 232
1860 SI MM 1860-03-25 00:00:00 NR -18.71 62.04 475 447 __________P___ -1 -18.71 62.04 7 7 233
1860 SI MM 03:00:00 NR -18.91 61.76 447 409 __________P___ -1 -18.91 61.76 7 6 233
1860 SI MM 06:00:00 NR -19.10 61.50 409 382 __________O___ -1 -19.10 61.50 7 6 231
1860 SI MM 09:00:00 NR -19.26 61.29 382 359 __________P___ -1 -19.26 61.29 7 5 229
1860 SI MM 12:00:00 NR -19.41 61.11 359 343 __________P___ -1 -19.41 61.11 7 4 228
1860 SI MM 15:00:00 NR -19.56 60.95 343 320 __________P___ -1 -19.56 60.95 7 4 226
1860 SI MM 18:00:00 NR -19.70 60.80 320 308 __________O___ -1 -19.70 60.80 7 4 225
1860 SI MM 21:00:00 NR -19.85 60.64 297 283 __________P___ -1 -19.85 60.64 7 4 225
1860 SI MM 1860-03-26 00:00:00 NR -19.99 60.49 283 272 __________P___ -1 -19.99 60.49 7 4 223
1860 SI MM 03:00:00 NR -20.14 60.35 261 250 __________P___ -1 -20.14 60.35 7 4 222
1860 SI MM 06:00:00 NR -20.30 60.20 250 240 __________O___ -1 -20.30 60.20 7 4 221
1860 SI MM 09:00:00 NR -20.47 60.05 230 221 __________P___ -1 -20.47 60.05 7 4 220
1860 SI MM 12:00:00 NR -20.64 59.89 221 213 __________P___ -1 -20.64 59.89 7 5 219
1860 SI MM 15:00:00 NR -20.82 59.74 205 198 __________P___ -1 -20.82 59.74 7 5 218
1860 SI MM 18:00:00 NR -21.00 59.60 202 198 __________O___ -1 -21.00 59.60 7 4 218
1860 SI MM 21:00:00 NR -21.14 59.48 198 193 __________P___ -1 -21.14 59.48 7 4 219
1860 SI MM 1860-03-27 00:00:00 NR -21.28 59.36 197 185 __________P___ -1 -21.28 59.36 7 4 215
1860 SI MM 03:00:00 NR -21.46 59.23 191 190 __________P___ -1 -21.46 59.23 7 5 209
1860 SI MM 06:00:00 NR -21.70 59.10 197 197 __________O___ -1 -21.70 59.10 7 6 206
1860 SI MM 09:00:00 NR -22.03 58.94 208 208 __________P___ -1 -22.03 58.94 7 8 204
1860 SI MM 12:00:00 NR -22.42 58.76 241 236 __________P___ -1 -22.42 58.76 7 9 202
1860 SI MM 15:00:00 NR -22.85 58.58 273 273 __________P___ -1 -22.85 58.58 7 9 200
1860 SI MM 18:00:00 NR -23.30 58.40 321 321 __________O___ -1 -23.30 58.40 7 9 199
1860 SI MM 21:00:00 NR -23.74 58.23 361 361 __________P___ -1 -23.74 58.23 7 9 198
1860 SI MM 1860-03-28 00:00:00 NR -24.19 58.08 400 400 __________P___ -1 -24.19 58.08 7 10 197
1860 SI MM 03:00:00 NR -24.65 57.93 426 426 __________P___ -1 -24.65 57.93 7 9 196
1860 SI MM 06:00:00 NR -25.10 57.80 470 470 __________O___ -1 -25.10 57.80 7 9 194
1860 SI MM 09:00:00 NR -25.53 57.69 505 505 __________P___ -1 -25.53 57.69 7 9 193
1860 SI MM 12:00:00 NR -25.95 57.58 542 542 __________P___ -1 -25.95 57.58 7 9 192
1860 SI MM 15:00:00 NR -26.37 57.49 591 591 __________P___ -1 -26.37 57.49 7 9 191
1860 SI MM 18:00:00 NR -26.80 57.40 630 630 __________O___ -1 -26.80 57.40 7 9 191
1860 SI MM 21:00:00 NR -27.24 57.30 670 670 __________P___ -1 -27.24 57.30 7 9 191
1860 SI MM 1860-03-29 00:00:00 NR -27.69 57.21 722 722 __________P___ -1 -27.69 57.21 7 9 191
1860 SI MM 03:00:00 NR -28.14 57.10 763 763 __________P___ -1 -28.14 57.10 7 9 191
1860 SI MM 06:00:00 NR -28.60 57.00 816 __________O___ -1 -28.60 57.00 7 9 191